createdAt,value
2023-03-29T00:00:42.012Z,1016.99
2023-03-29T00:01:42.092Z,1016.92
2023-03-29T00:02:42.109Z,1016.87
2023-03-29T00:03:42.036Z,1016.89
2023-03-29T00:04:42.126Z,1016.89
2023-03-29T00:05:41.976Z,1016.88
2023-03-29T00:06:41.974Z,1016.90
2023-03-29T00:07:41.963Z,1016.89
2023-03-29T00:08:41.968Z,1016.85
2023-03-29T00:09:41.956Z,1016.82
2023-03-29T00:10:41.951Z,1016.78
2023-03-29T00:11:41.951Z,1016.82
2023-03-29T00:13:41.954Z,1016.73
2023-03-29T00:14:41.939Z,1016.79
2023-03-29T00:15:41.924Z,1016.73
2023-03-29T00:16:41.945Z,1016.76
2023-03-29T00:17:41.940Z,1016.73
2023-03-29T00:18:41.916Z,1016.75
2023-03-29T00:19:41.910Z,1016.77
2023-03-29T00:20:41.901Z,1016.78
2023-03-29T00:21:41.901Z,1016.79
2023-03-29T00:22:41.893Z,1016.76
2023-03-29T00:23:41.900Z,1016.73
2023-03-29T00:24:41.883Z,1016.76
2023-03-29T00:25:41.876Z,1016.73
2023-03-29T00:26:41.875Z,1016.76
2023-03-29T00:27:41.870Z,1016.78
2023-03-29T00:28:41.864Z,1016.72
2023-03-29T00:29:41.884Z,1016.76
2023-03-29T00:30:41.851Z,1016.76
2023-03-29T00:31:41.875Z,1016.77
2023-03-29T00:32:41.921Z,1016.77
2023-03-29T00:33:41.854Z,1016.73
2023-03-29T00:34:41.830Z,1016.75
2023-03-29T00:35:41.873Z,1016.73
2023-03-29T00:36:41.822Z,1016.72
2023-03-29T00:37:41.822Z,1016.70
2023-03-29T00:38:41.816Z,1016.66
2023-03-29T00:39:41.812Z,1016.65
2023-03-29T00:40:41.810Z,1016.66
2023-03-29T00:41:41.817Z,1016.67
2023-03-29T00:42:41.791Z,1016.65
2023-03-29T00:43:41.796Z,1016.63
2023-03-29T00:44:41.789Z,1016.71
2023-03-29T00:45:41.802Z,1016.68
2023-03-29T00:46:41.788Z,1016.69
2023-03-29T00:47:41.828Z,1016.64
2023-03-29T00:48:41.772Z,1016.69
2023-03-29T00:49:41.790Z,1016.66
2023-03-29T00:50:41.754Z,1016.62
2023-03-29T00:51:41.755Z,1016.62
2023-03-29T00:52:41.743Z,1016.62
2023-03-29T00:53:41.741Z,1016.59
2023-03-29T00:54:41.736Z,1016.63
2023-03-29T00:55:41.730Z,1016.58
2023-03-29T00:56:41.788Z,1016.59
2023-03-29T00:57:41.719Z,1016.57
2023-03-29T00:58:41.710Z,1016.57
2023-03-29T00:59:41.711Z,1016.54
2023-03-29T01:00:41.705Z,1016.51
2023-03-29T01:01:41.764Z,1016.53
2023-03-29T01:02:41.824Z,1016.46
2023-03-29T01:03:41.797Z,1016.41
2023-03-29T01:04:41.720Z,1016.42
2023-03-29T01:05:41.695Z,1016.38
2023-03-29T01:06:41.732Z,1016.39
2023-03-29T01:07:41.676Z,1016.32
2023-03-29T01:08:41.669Z,1016.32
2023-03-29T01:09:41.664Z,1016.31
2023-03-29T01:10:41.653Z,1016.30
2023-03-29T01:11:41.656Z,1016.26
2023-03-29T01:12:41.647Z,1016.25
2023-03-29T01:13:41.679Z,1016.24
2023-03-29T01:14:41.636Z,1016.23
2023-03-29T01:15:41.635Z,1016.22
2023-03-29T01:16:41.695Z,1016.23
2023-03-29T01:17:41.687Z,1016.24
2023-03-29T01:18:41.612Z,1016.22
2023-03-29T01:19:41.615Z,1016.16
2023-03-29T01:20:41.613Z,1016.17
2023-03-29T01:21:41.610Z,1016.13
2023-03-29T01:22:41.599Z,1016.08
2023-03-29T01:23:41.596Z,1016.12
2023-03-29T01:24:41.590Z,1016.06
2023-03-29T01:25:41.580Z,1016.06
2023-03-29T01:26:41.595Z,1016.07
2023-03-29T01:27:41.576Z,1016.05
2023-03-29T01:28:41.575Z,1016.03
2023-03-29T01:29:41.564Z,1016.02
2023-03-29T01:30:41.556Z,1016.03
2023-03-29T01:31:41.560Z,1015.95
2023-03-29T01:32:41.630Z,1015.98
2023-03-29T01:33:41.570Z,1015.97
2023-03-29T01:34:41.642Z,1015.96
2023-03-29T01:35:41.559Z,1015.96
2023-03-29T01:36:41.522Z,1015.91
2023-03-29T01:37:41.521Z,1015.93
2023-03-29T01:38:41.523Z,1015.92
2023-03-29T01:39:41.509Z,1015.90
2023-03-29T01:40:41.498Z,1015.86
2023-03-29T01:41:41.495Z,1015.85
2023-03-29T01:42:41.488Z,1015.84
2023-03-29T01:43:41.487Z,1015.81
2023-03-29T01:44:41.497Z,1015.79
2023-03-29T01:45:41.507Z,1015.77
2023-03-29T01:46:41.469Z,1015.74
2023-03-29T01:47:41.535Z,1015.71
2023-03-29T01:48:41.459Z,1015.72
2023-03-29T01:49:41.482Z,1015.68
2023-03-29T01:50:41.457Z,1015.64
2023-03-29T01:51:41.452Z,1015.63
2023-03-29T01:52:41.441Z,1015.61
2023-03-29T01:53:41.440Z,1015.59
2023-03-29T01:54:41.434Z,1015.62
2023-03-29T01:55:41.444Z,1015.59
2023-03-29T01:56:41.432Z,1015.56
2023-03-29T01:57:41.414Z,1015.52
2023-03-29T01:58:41.408Z,1015.52
2023-03-29T01:59:41.401Z,1015.51
2023-03-29T02:00:41.404Z,1015.46
2023-03-29T02:01:41.418Z,1015.45
2023-03-29T02:02:41.469Z,1015.48
2023-03-29T02:03:41.429Z,1015.45
2023-03-29T02:04:41.375Z,1015.44
2023-03-29T02:05:41.402Z,1015.39
2023-03-29T02:06:41.375Z,1015.38
2023-03-29T02:07:41.363Z,1015.32
2023-03-29T02:08:41.358Z,1015.31
2023-03-29T02:09:41.354Z,1015.32
2023-03-29T02:10:41.342Z,1015.28
2023-03-29T02:11:41.342Z,1015.28
2023-03-29T02:12:41.330Z,1015.27
2023-03-29T02:13:41.329Z,1015.27
2023-03-29T02:14:41.324Z,1015.27
2023-03-29T02:15:41.370Z,1015.29
2023-03-29T02:16:41.307Z,1015.25
2023-03-29T02:17:41.344Z,1015.27
2023-03-29T02:18:41.314Z,1015.23
2023-03-29T02:19:41.295Z,1015.23
2023-03-29T02:20:41.288Z,1015.25
2023-03-29T02:21:41.311Z,1015.20
2023-03-29T02:22:41.277Z,1015.23
2023-03-29T02:23:41.281Z,1015.19
2023-03-29T02:24:41.271Z,1015.24
2023-03-29T02:25:41.269Z,1015.19
2023-03-29T02:26:41.264Z,1015.18
2023-03-29T02:27:41.252Z,1015.15
2023-03-29T02:28:41.246Z,1015.16
2023-03-29T02:29:41.243Z,1015.18
2023-03-29T02:30:41.235Z,1015.19
2023-03-29T02:31:41.282Z,1015.18
2023-03-29T02:32:41.279Z,1015.16
2023-03-29T02:33:41.226Z,1015.16
2023-03-29T02:34:41.214Z,1015.14
2023-03-29T02:35:41.273Z,1015.11
2023-03-29T02:36:41.208Z,1015.11
2023-03-29T02:37:41.225Z,1015.08
2023-03-29T02:38:41.191Z,1015.10
2023-03-29T02:39:41.186Z,1015.11
2023-03-29T02:40:41.192Z,1015.06
2023-03-29T02:41:41.179Z,1015.06
2023-03-29T02:42:41.170Z,1015.06
2023-03-29T02:43:41.168Z,1015.02
2023-03-29T02:44:41.162Z,1015.02
2023-03-29T02:45:41.176Z,1015.02
2023-03-29T02:46:41.178Z,1014.97
2023-03-29T02:47:41.192Z,1015.03
2023-03-29T02:48:41.139Z,1014.94
2023-03-29T02:49:41.136Z,1014.98
2023-03-29T02:50:41.134Z,1014.96
2023-03-29T02:51:41.127Z,1014.93
2023-03-29T02:52:41.124Z,1014.92
2023-03-29T02:53:41.148Z,1014.90
2023-03-29T02:54:41.108Z,1014.93
2023-03-29T02:55:41.104Z,1014.88
2023-03-29T02:56:41.125Z,1014.85
2023-03-29T02:58:41.092Z,1014.83
2023-03-29T02:59:41.086Z,1014.78
2023-03-29T03:00:41.074Z,1014.75
2023-03-29T03:01:41.105Z,1014.74
2023-03-29T03:02:41.184Z,1014.79
2023-03-29T03:03:41.210Z,1014.73
2023-03-29T03:04:41.055Z,1014.78
2023-03-29T03:05:41.059Z,1014.75
2023-03-29T03:06:41.055Z,1014.74
2023-03-29T03:07:41.041Z,1014.70
2023-03-29T03:08:41.040Z,1014.69
2023-03-29T03:09:41.054Z,1014.70
2023-03-29T03:10:41.028Z,1014.72
2023-03-29T03:11:41.026Z,1014.70
2023-03-29T03:12:41.022Z,1014.71
2023-03-29T03:13:41.011Z,1014.71
2023-03-29T03:14:41.003Z,1014.67
2023-03-29T03:15:40.999Z,1014.68
2023-03-29T03:16:41.050Z,1014.63
2023-03-29T03:17:41.103Z,1014.63
2023-03-29T03:18:40.983Z,1014.66
2023-03-29T03:19:40.980Z,1014.63
2023-03-29T03:20:40.984Z,1014.59
2023-03-29T03:21:40.965Z,1014.60
2023-03-29T03:22:40.957Z,1014.59
2023-03-29T03:23:40.952Z,1014.54
2023-03-29T03:24:40.944Z,1014.54
2023-03-29T03:25:40.960Z,1014.56
2023-03-29T03:26:40.936Z,1014.52
2023-03-29T03:27:40.928Z,1014.52
2023-03-29T03:28:40.920Z,1014.46
2023-03-29T03:29:40.917Z,1014.48
2023-03-29T03:30:40.911Z,1014.47
2023-03-29T03:31:40.946Z,1014.42
2023-03-29T03:32:40.908Z,1014.44
2023-03-29T03:33:40.933Z,1014.43
2023-03-29T03:34:40.897Z,1014.43
2023-03-29T03:35:40.930Z,1014.47
2023-03-29T03:36:40.874Z,1014.44
2023-03-29T03:37:40.870Z,1014.42
2023-03-29T03:38:40.879Z,1014.48
2023-03-29T03:39:40.860Z,1014.43
2023-03-29T03:40:40.869Z,1014.42
2023-03-29T03:41:40.877Z,1014.43
2023-03-29T03:42:40.838Z,1014.44
2023-03-29T03:43:40.837Z,1014.47
2023-03-29T03:44:40.837Z,1014.47
2023-03-29T03:45:40.865Z,1014.47
2023-03-29T03:46:40.819Z,1014.47
2023-03-29T03:47:40.819Z,1014.44
2023-03-29T03:48:40.811Z,1014.40
2023-03-29T03:49:40.812Z,1014.41
2023-03-29T03:50:40.792Z,1014.39
2023-03-29T03:51:40.789Z,1014.43
2023-03-29T03:52:40.784Z,1014.39
2023-03-29T03:53:40.785Z,1014.45
2023-03-29T03:54:40.772Z,1014.38
2023-03-29T03:55:40.766Z,1014.40
2023-03-29T03:56:40.809Z,1014.41
2023-03-29T03:57:40.787Z,1014.44
2023-03-29T03:58:40.750Z,1014.38
2023-03-29T03:59:40.763Z,1014.38
2023-03-29T04:00:40.744Z,1014.38
2023-03-29T04:01:40.740Z,1014.38
2023-03-29T04:02:40.804Z,1014.36
2023-03-29T04:03:40.761Z,1014.36
2023-03-29T04:04:40.718Z,1014.36
2023-03-29T04:05:40.715Z,1014.34
2023-03-29T04:06:43.161Z,1014.29
2023-03-29T04:07:40.699Z,1014.30
2023-03-29T04:08:40.710Z,1014.32
2023-03-29T04:09:40.700Z,1014.27
2023-03-29T04:10:40.689Z,1014.22
2023-03-29T04:11:40.682Z,1014.26
2023-03-29T04:12:40.670Z,1014.25
2023-03-29T04:13:40.691Z,1014.23
2023-03-29T04:14:40.660Z,1014.24
2023-03-29T04:15:40.690Z,1014.21
2023-03-29T04:16:40.645Z,1014.26
2023-03-29T04:17:40.713Z,1014.26
2023-03-29T04:18:40.710Z,1014.31
2023-03-29T04:19:40.632Z,1014.33
2023-03-29T04:20:40.620Z,1014.27
2023-03-29T04:21:40.620Z,1014.29
2023-03-29T04:22:40.611Z,1014.28
2023-03-29T04:23:40.607Z,1014.28
2023-03-29T04:24:40.599Z,1014.29
2023-03-29T04:25:40.598Z,1014.23
2023-03-29T04:26:40.608Z,1014.28
2023-03-29T04:27:40.617Z,1014.26
2023-03-29T04:28:40.579Z,1014.25
2023-03-29T04:29:40.605Z,1014.24
2023-03-29T04:30:40.567Z,1014.25
2023-03-29T04:31:40.630Z,1014.25
2023-03-29T04:32:40.669Z,1014.22
2023-03-29T04:33:40.558Z,1014.25
2023-03-29T04:34:40.553Z,1014.20
2023-03-29T04:35:40.562Z,1014.22
2023-03-29T04:36:40.544Z,1014.21
2023-03-29T04:37:40.527Z,1014.23
2023-03-29T04:38:40.532Z,1014.23
2023-03-29T04:39:40.531Z,1014.21
2023-03-29T04:40:40.546Z,1014.21
2023-03-29T04:41:40.516Z,1014.18
2023-03-29T04:42:40.511Z,1014.19
2023-03-29T04:43:40.498Z,1014.12
2023-03-29T04:44:40.535Z,1014.13
2023-03-29T04:45:40.511Z,1014.13
2023-03-29T04:46:40.559Z,1014.16
2023-03-29T04:47:40.481Z,1014.12
2023-03-29T04:48:40.480Z,1014.11
2023-03-29T04:49:40.467Z,1014.14
2023-03-29T04:50:40.477Z,1014.17
2023-03-29T04:51:40.457Z,1014.16
2023-03-29T04:52:40.457Z,1014.13
2023-03-29T04:53:40.445Z,1014.19
2023-03-29T04:54:40.447Z,1014.14
2023-03-29T04:55:40.435Z,1014.16
2023-03-29T04:56:40.478Z,1014.13
2023-03-29T04:57:40.424Z,1014.12
2023-03-29T04:58:40.424Z,1014.13
2023-03-29T04:59:40.416Z,1014.10
2023-03-29T05:00:40.412Z,1014.14
2023-03-29T05:01:40.454Z,1014.14
2023-03-29T05:02:40.429Z,1014.13
2023-03-29T05:03:40.391Z,1014.10
2023-03-29T05:04:40.486Z,1014.09
2023-03-29T05:05:40.375Z,1014.12
2023-03-29T05:06:40.372Z,1014.10
2023-03-29T05:07:40.369Z,1014.09
2023-03-29T05:08:40.391Z,1014.06
2023-03-29T05:09:40.361Z,1014.11
2023-03-29T05:10:40.353Z,1014.09
2023-03-29T05:11:40.347Z,1014.05
2023-03-29T05:12:40.348Z,1014.07
2023-03-29T05:13:40.332Z,1014.11
2023-03-29T05:14:40.328Z,1014.09
2023-03-29T05:15:41.298Z,1014.09
2023-03-29T05:16:40.443Z,1014.10
2023-03-29T05:17:40.397Z,1014.09
2023-03-29T05:18:40.340Z,1014.08
2023-03-29T05:19:40.303Z,1014.05
2023-03-29T05:20:40.296Z,1014.05
2023-03-29T05:21:40.287Z,1014.00
2023-03-29T05:22:40.336Z,1014.01
2023-03-29T05:23:40.277Z,1013.98
2023-03-29T05:24:40.276Z,1013.96
2023-03-29T05:25:40.266Z,1014.00
2023-03-29T05:26:40.264Z,1013.98
2023-03-29T05:27:40.259Z,1013.95
2023-03-29T05:28:40.250Z,1013.96
2023-03-29T05:29:40.246Z,1013.95
2023-03-29T05:30:40.236Z,1013.90
2023-03-29T05:31:40.259Z,1013.92
2023-03-29T05:32:40.256Z,1013.87
2023-03-29T05:33:40.249Z,1013.88
2023-03-29T05:34:40.215Z,1013.88
2023-03-29T05:35:40.221Z,1013.88
2023-03-29T05:36:40.204Z,1013.90
2023-03-29T05:37:40.196Z,1013.85
2023-03-29T05:38:40.197Z,1013.89
2023-03-29T05:39:40.189Z,1013.90
2023-03-29T05:40:40.183Z,1013.88
2023-03-29T05:41:40.174Z,1013.85
2023-03-29T05:42:40.176Z,1013.84
2023-03-29T05:43:40.174Z,1013.88
2023-03-29T05:44:40.162Z,1013.86
2023-03-29T05:45:40.171Z,1013.84
2023-03-29T05:46:40.148Z,1013.85
2023-03-29T05:47:40.173Z,1013.86
2023-03-29T05:48:40.144Z,1013.83
2023-03-29T05:49:40.155Z,1013.88
2023-03-29T05:50:40.126Z,1013.88
2023-03-29T05:51:40.117Z,1013.88
2023-03-29T05:52:40.116Z,1013.91
2023-03-29T05:53:40.104Z,1013.92
2023-03-29T05:54:40.112Z,1013.92
2023-03-29T05:55:40.102Z,1013.92
2023-03-29T05:56:40.148Z,1013.91
2023-03-29T05:57:40.085Z,1013.85
2023-03-29T05:58:40.084Z,1013.87
2023-03-29T05:59:40.095Z,1013.89
2023-03-29T06:00:40.076Z,1013.93
2023-03-29T06:01:40.120Z,1013.88
2023-03-29T06:02:40.207Z,1013.84
2023-03-29T06:03:40.165Z,1013.86
2023-03-29T06:04:40.167Z,1013.83
2023-03-29T06:05:40.067Z,1013.81
2023-03-29T06:06:40.039Z,1013.84
2023-03-29T06:07:40.033Z,1013.85
2023-03-29T06:08:40.039Z,1013.86
2023-03-29T06:09:40.046Z,1013.90
2023-03-29T06:10:40.027Z,1013.87
2023-03-29T06:11:40.016Z,1013.86
2023-03-29T06:12:40.018Z,1013.90
2023-03-29T06:13:40.004Z,1013.91
2023-03-29T06:14:40.004Z,1013.92
2023-03-29T06:15:40.014Z,1013.88
2023-03-29T06:16:42.217Z,1013.94
2023-03-29T06:17:40.114Z,1013.92
2023-03-29T06:18:40.006Z,1013.92
2023-03-29T06:19:39.971Z,1013.91
2023-03-29T06:20:39.973Z,1013.92
2023-03-29T06:21:39.990Z,1013.92
2023-03-29T06:22:39.965Z,1013.88
2023-03-29T06:23:39.956Z,1013.89
2023-03-29T06:24:39.959Z,1013.90
2023-03-29T06:25:39.950Z,1013.85
2023-03-29T06:26:39.949Z,1013.95
2023-03-29T06:27:39.942Z,1013.94
2023-03-29T06:28:39.935Z,1013.92
2023-03-29T06:29:39.934Z,1013.92
2023-03-29T06:30:39.926Z,1013.95
2023-03-29T06:31:39.963Z,1013.99
2023-03-29T06:32:39.966Z,1013.95
2023-03-29T06:33:39.909Z,1013.97
2023-03-29T06:34:39.917Z,1013.99
2023-03-29T06:35:39.913Z,1014.00
2023-03-29T06:36:39.902Z,1013.94
2023-03-29T06:37:39.912Z,1013.87
2023-03-29T06:38:39.885Z,1013.88
2023-03-29T06:39:39.881Z,1013.91
2023-03-29T06:40:39.877Z,1013.86
2023-03-29T06:41:39.884Z,1013.90
2023-03-29T06:42:39.874Z,1013.92
2023-03-29T06:43:39.868Z,1013.91
2023-03-29T06:44:39.861Z,1013.87
2023-03-29T06:45:39.880Z,1013.87
2023-03-29T06:46:39.892Z,1013.89
2023-03-29T06:47:39.892Z,1013.83
2023-03-29T06:48:39.844Z,1013.82
2023-03-29T06:49:39.840Z,1013.82
2023-03-29T06:50:39.846Z,1013.80
2023-03-29T06:51:39.830Z,1013.84
2023-03-29T06:52:39.829Z,1013.83
2023-03-29T06:53:39.853Z,1013.88
2023-03-29T06:54:39.823Z,1013.83
2023-03-29T06:55:39.827Z,1013.81
2023-03-29T06:56:39.847Z,1013.82
2023-03-29T06:57:39.820Z,1013.79
2023-03-29T06:58:39.801Z,1013.77
2023-03-29T06:59:39.792Z,1013.81
2023-03-29T07:00:39.807Z,1013.81
2023-03-29T07:01:39.902Z,1013.78
2023-03-29T07:02:39.816Z,1013.78
2023-03-29T07:03:39.777Z,1013.81
2023-03-29T07:04:39.852Z,1013.80
2023-03-29T07:05:39.774Z,1013.81
2023-03-29T07:06:39.865Z,1013.75
2023-03-29T07:07:39.754Z,1013.74
2023-03-29T07:08:39.761Z,1013.73
2023-03-29T07:09:39.818Z,1013.69
2023-03-29T07:10:39.753Z,1013.73
2023-03-29T07:11:39.759Z,1013.69
2023-03-29T07:12:39.745Z,1013.70
2023-03-29T07:13:39.739Z,1013.73
2023-03-29T07:14:39.754Z,1013.72
2023-03-29T07:15:39.731Z,1013.73
2023-03-29T07:16:39.752Z,1013.75
2023-03-29T07:17:39.764Z,1013.68
2023-03-29T07:18:39.721Z,1013.67
2023-03-29T07:19:39.708Z,1013.67
2023-03-29T07:20:39.721Z,1013.66
2023-03-29T07:21:39.698Z,1013.73
2023-03-29T07:22:39.703Z,1013.67
2023-03-29T07:23:39.694Z,1013.70
2023-03-29T07:24:39.705Z,1013.72
2023-03-29T07:25:39.717Z,1013.70
2023-03-29T07:26:46.317Z,1013.74
2023-03-29T07:27:39.676Z,1013.70
2023-03-29T07:28:39.912Z,1013.69
2023-03-29T07:29:39.667Z,1013.71
2023-03-29T07:30:39.668Z,1013.72
2023-03-29T07:31:39.664Z,1013.76
2023-03-29T07:32:39.738Z,1013.68
2023-03-29T07:33:39.969Z,1013.73
2023-03-29T07:34:39.661Z,1013.69
2023-03-29T07:35:39.677Z,1013.73
2023-03-29T07:36:39.653Z,1013.76
2023-03-29T07:37:39.663Z,1013.75
2023-03-29T07:38:39.643Z,1013.80
2023-03-29T07:39:39.633Z,1013.85
2023-03-29T07:40:39.635Z,1013.82
2023-03-29T07:41:39.656Z,1013.91
2023-03-29T07:42:39.632Z,1013.98
2023-03-29T07:43:39.621Z,1013.99
2023-03-29T07:44:39.618Z,1014.05
2023-03-29T07:45:39.643Z,1014.03
2023-03-29T07:46:39.618Z,1013.97
2023-03-29T07:47:39.655Z,1013.95
2023-03-29T07:48:39.619Z,1013.95
2023-03-29T07:49:39.599Z,1013.97
2023-03-29T07:50:39.603Z,1013.85
2023-03-29T07:51:39.600Z,1013.83
2023-03-29T07:52:39.600Z,1013.82
2023-03-29T07:53:39.592Z,1013.78
2023-03-29T07:54:39.595Z,1013.83
2023-03-29T07:55:39.601Z,1013.87
2023-03-29T07:56:39.710Z,1013.94
2023-03-29T07:57:39.598Z,1013.97
2023-03-29T07:58:39.582Z,1014.03
2023-03-29T07:59:39.570Z,1013.96
2023-03-29T08:00:39.587Z,1013.96
2023-03-29T08:01:39.563Z,1013.88
2023-03-29T08:02:39.584Z,1013.91
2023-03-29T08:03:39.590Z,1014.06
2023-03-29T08:04:39.575Z,1014.31
2023-03-29T08:05:41.717Z,1014.65
2023-03-29T08:06:39.550Z,1015.22
2023-03-29T08:07:39.554Z,1015.52
2023-03-29T08:08:39.543Z,1016.05
2023-03-29T08:09:39.541Z,1016.68
2023-03-29T08:10:39.673Z,1016.64
2023-03-29T08:11:39.532Z,1017.46
2023-03-29T08:12:39.533Z,1018.44
2023-03-29T08:13:39.557Z,1018.71
2023-03-29T08:14:39.534Z,1018.05
2023-03-29T08:15:39.606Z,1018.58
2023-03-29T08:16:39.594Z,1019.31
2023-03-29T08:17:39.557Z,1019.52
2023-03-29T08:18:39.535Z,1019.83
2023-03-29T08:19:39.519Z,1020.93
2023-03-29T08:20:39.526Z,1021.15
2023-03-29T08:21:39.526Z,1021.03
2023-03-29T08:22:39.522Z,1021.75
2023-03-29T08:23:39.520Z,1017.47
2023-03-29T08:24:39.534Z,1019.22
2023-03-29T08:25:39.515Z,1018.52
2023-03-29T08:26:39.524Z,1018.28
2023-03-29T08:27:39.520Z,1016.22
2023-03-29T08:28:39.523Z,1016.30
2023-03-29T08:29:39.545Z,1016.68
2023-03-29T08:30:39.569Z,1017.22
2023-03-29T08:31:39.524Z,1019.94
2023-03-29T08:32:39.587Z,1019.02
2023-03-29T08:33:39.513Z,1019.09
2023-03-29T08:34:39.518Z,1017.86
2023-03-29T08:35:39.554Z,1016.93
2023-03-29T08:36:39.516Z,1018.22
2023-03-29T08:37:39.542Z,1017.01
2023-03-29T08:38:39.530Z,1016.29
2023-03-29T08:39:39.516Z,1015.98
2023-03-29T08:40:39.511Z,1016.36
2023-03-29T08:41:39.518Z,1015.59
2023-03-29T08:42:39.522Z,1015.56
2023-03-29T08:43:39.518Z,1015.05
2023-03-29T08:44:39.515Z,1015.47
2023-03-29T08:45:39.540Z,1016.90
2023-03-29T08:46:39.593Z,1018.06
2023-03-29T08:47:39.575Z,1016.68
2023-03-29T08:48:39.517Z,1018.24
2023-03-29T08:49:39.516Z,1018.65
2023-03-29T08:50:39.520Z,1018.12
2023-03-29T08:51:39.539Z,1018.73
2023-03-29T08:52:39.520Z,1018.48
2023-03-29T08:53:39.523Z,1018.65
2023-03-29T08:54:39.524Z,1017.68
2023-03-29T08:55:39.532Z,1017.29
2023-03-29T08:56:39.575Z,1017.98
2023-03-29T08:57:39.577Z,1017.64
2023-03-29T08:58:39.520Z,1017.83
2023-03-29T08:59:39.530Z,1016.22
2023-03-29T09:00:39.523Z,1016.25
2023-03-29T09:01:39.592Z,1016.14
2023-03-29T09:02:39.649Z,1016.56
2023-03-29T09:03:39.740Z,1016.33
2023-03-29T09:04:39.528Z,1014.84
2023-03-29T09:05:39.533Z,1014.29
2023-03-29T09:06:39.539Z,1014.31
2023-03-29T09:07:39.536Z,1014.63
2023-03-29T09:08:39.546Z,1014.45
2023-03-29T09:09:39.545Z,1014.64
2023-03-29T09:10:39.562Z,1014.53
2023-03-29T09:11:39.552Z,1014.53
2023-03-29T09:12:39.543Z,1014.47
2023-03-29T09:13:39.546Z,1014.55
2023-03-29T09:14:39.544Z,1014.11
2023-03-29T09:15:39.581Z,1014.00
2023-03-29T09:16:39.552Z,1013.95
2023-03-29T09:17:39.632Z,1013.92
2023-03-29T09:18:39.547Z,1013.93
2023-03-29T09:19:39.553Z,1013.91
2023-03-29T09:20:39.564Z,1013.88
2023-03-29T09:21:39.560Z,1013.82
2023-03-29T09:22:39.570Z,1013.58
2023-03-29T09:23:39.564Z,1013.72
2023-03-29T09:24:39.573Z,1013.66
2023-03-29T09:25:50.825Z,1013.70
2023-03-29T09:26:39.571Z,1013.67
2023-03-29T09:27:39.566Z,1013.76
2023-03-29T09:28:39.566Z,1013.82
2023-03-29T09:29:39.571Z,1013.80
2023-03-29T09:30:39.573Z,1013.83
2023-03-29T09:31:39.593Z,1013.93
2023-03-29T09:32:39.599Z,1013.70
2023-03-29T09:33:39.595Z,1013.58
2023-03-29T09:34:39.575Z,1013.53
2023-03-29T09:35:39.684Z,1013.45
2023-03-29T09:36:39.577Z,1013.51
2023-03-29T09:37:39.587Z,1013.48
2023-03-29T09:38:39.620Z,1013.46
2023-03-29T09:39:39.583Z,1013.49
2023-03-29T09:40:39.581Z,1013.40
2023-03-29T09:41:39.603Z,1013.47
2023-03-29T09:42:39.586Z,1013.42
2023-03-29T09:43:39.587Z,1013.44
2023-03-29T09:44:39.584Z,1013.43
2023-03-29T09:45:39.614Z,1013.49
2023-03-29T09:46:39.585Z,1013.42
2023-03-29T09:47:39.646Z,1013.42
2023-03-29T09:48:39.601Z,1013.44
2023-03-29T09:49:39.616Z,1013.51
2023-03-29T09:50:39.587Z,1013.50
2023-03-29T09:51:39.592Z,1013.41
2023-03-29T09:52:39.612Z,1013.41
2023-03-29T09:53:39.603Z,1013.32
2023-03-29T09:54:39.590Z,1013.29
2023-03-29T09:55:39.597Z,1013.34
2023-03-29T09:56:39.630Z,1013.29
2023-03-29T09:57:39.592Z,1013.30
2023-03-29T09:58:39.597Z,1013.25
2023-03-29T09:59:39.605Z,1013.20
2023-03-29T10:00:39.617Z,1013.23
2023-03-29T10:01:39.661Z,1013.28
2023-03-29T10:02:39.616Z,1013.26
2023-03-29T10:03:39.601Z,1013.30
2023-03-29T10:04:39.666Z,1013.25
2023-03-29T10:05:39.618Z,1013.17
2023-03-29T10:06:39.599Z,1013.10
2023-03-29T10:07:39.601Z,1013.16
2023-03-29T10:08:39.602Z,1013.35
2023-03-29T10:09:39.625Z,1013.10
2023-03-29T10:10:39.603Z,1013.24
2023-03-29T10:11:39.600Z,1013.26
2023-03-29T10:12:39.607Z,1013.06
2023-03-29T10:13:39.611Z,1013.18
2023-03-29T10:14:39.599Z,1013.16
2023-03-29T10:15:39.597Z,1013.13
2023-03-29T10:16:39.673Z,1013.02
2023-03-29T10:17:39.658Z,1012.98
2023-03-29T10:18:39.604Z,1013.05
2023-03-29T10:19:39.601Z,1012.99
2023-03-29T10:20:39.599Z,1013.03
2023-03-29T10:21:39.632Z,1012.98
2023-03-29T10:22:39.596Z,1013.00
2023-03-29T10:23:39.598Z,1012.99
2023-03-29T10:24:39.596Z,1013.04
2023-03-29T10:25:42.335Z,1013.04
2023-03-29T10:26:39.597Z,1012.84
2023-03-29T10:27:39.599Z,1012.83
2023-03-29T10:28:39.593Z,1012.75
2023-03-29T10:29:39.615Z,1012.68
2023-03-29T10:30:39.597Z,1012.82
2023-03-29T10:31:39.676Z,1012.75
2023-03-29T10:32:39.647Z,1012.69
2023-03-29T10:33:39.609Z,1012.69
2023-03-29T10:34:39.594Z,1012.73
2023-03-29T10:35:39.610Z,1012.67
2023-03-29T10:36:39.603Z,1012.62
2023-03-29T10:37:39.623Z,1012.78
2023-03-29T10:38:39.593Z,1012.65
2023-03-29T10:39:39.602Z,1012.66
2023-03-29T10:40:39.609Z,1012.65
2023-03-29T10:41:39.597Z,1012.52
2023-03-29T10:42:39.591Z,1012.56
2023-03-29T10:43:39.603Z,1012.66
2023-03-29T10:44:39.601Z,1012.59
2023-03-29T10:45:39.599Z,1012.59
2023-03-29T10:46:39.645Z,1012.71
2023-03-29T10:47:39.623Z,1012.67
2023-03-29T10:48:39.596Z,1012.59
2023-03-29T10:49:39.603Z,1012.68
2023-03-29T10:50:39.597Z,1012.63
2023-03-29T10:51:39.598Z,1012.53
2023-03-29T10:52:39.598Z,1012.55
2023-03-29T10:53:39.620Z,1012.64
2023-03-29T10:54:39.597Z,1012.49
2023-03-29T10:55:39.594Z,1012.60
2023-03-29T10:56:39.665Z,1012.46
2023-03-29T10:57:39.644Z,1012.46
2023-03-29T10:58:39.594Z,1012.54
2023-03-29T10:59:39.601Z,1012.51
2023-03-29T11:00:39.601Z,1012.52
2023-03-29T11:01:39.642Z,1012.49
2023-03-29T11:02:39.716Z,1012.53
2023-03-29T11:03:39.666Z,1012.47
2023-03-29T11:04:39.603Z,1012.40
2023-03-29T11:05:39.598Z,1012.57
2023-03-29T11:06:39.592Z,1012.49
2023-03-29T11:07:39.608Z,1012.46
2023-03-29T11:08:39.599Z,1012.52
2023-03-29T11:09:39.619Z,1012.52
2023-03-29T11:10:39.609Z,1012.47
2023-03-29T11:11:39.592Z,1012.34
2023-03-29T11:12:39.619Z,1012.28
2023-03-29T11:13:39.598Z,1012.40
2023-03-29T11:14:39.589Z,1012.28
2023-03-29T11:15:39.653Z,1012.28
2023-03-29T11:16:39.590Z,1012.32
2023-03-29T11:17:39.669Z,1012.46
2023-03-29T11:18:39.594Z,1012.55
2023-03-29T11:19:39.607Z,1012.40
2023-03-29T11:20:39.593Z,1012.29
2023-03-29T11:21:39.647Z,1012.32
2023-03-29T11:22:39.591Z,1012.25
2023-03-29T11:23:39.603Z,1012.27
2023-03-29T11:24:39.585Z,1012.28
2023-03-29T11:25:39.624Z,1012.24
2023-03-29T11:26:39.592Z,1012.30
2023-03-29T11:27:39.593Z,1012.32
2023-03-29T11:28:39.594Z,1012.31
2023-03-29T11:29:39.596Z,1012.27
2023-03-29T11:30:39.593Z,1012.19
2023-03-29T11:31:39.644Z,1012.21
2023-03-29T11:32:39.636Z,1012.15
2023-03-29T11:33:39.606Z,1012.07
2023-03-29T11:34:39.585Z,1012.10
2023-03-29T11:35:39.658Z,1012.11
2023-03-29T11:36:39.592Z,1012.16
2023-03-29T11:37:39.589Z,1012.16
2023-03-29T11:38:39.583Z,1012.19
2023-03-29T11:39:39.602Z,1012.18
2023-03-29T11:40:39.591Z,1012.11
2023-03-29T11:41:39.621Z,1012.14
2023-03-29T11:42:39.584Z,1012.07
2023-03-29T11:43:39.585Z,1012.02
2023-03-29T11:44:39.581Z,1011.91
2023-03-29T11:45:39.588Z,1012.00
2023-03-29T11:46:39.645Z,1012.09
2023-03-29T11:47:39.599Z,1012.05
2023-03-29T11:48:39.580Z,1012.08
2023-03-29T11:49:39.580Z,1011.99
2023-03-29T11:50:39.575Z,1012.00
2023-03-29T11:51:39.597Z,1011.91
2023-03-29T11:52:39.576Z,1011.89
2023-03-29T11:53:39.582Z,1011.89
2023-03-29T11:54:39.574Z,1012.01
2023-03-29T11:55:39.578Z,1012.00
2023-03-29T11:56:39.606Z,1011.89
2023-03-29T11:57:39.611Z,1012.01
2023-03-29T11:58:39.580Z,1012.04
2023-03-29T11:59:39.580Z,1011.94
2023-03-29T12:00:39.576Z,1012.09
2023-03-29T12:01:39.629Z,1011.95
2023-03-29T12:02:39.648Z,1011.90
2023-03-29T12:03:39.719Z,1011.86
2023-03-29T12:04:39.570Z,1011.97
2023-03-29T12:05:39.574Z,1012.02
2023-03-29T12:06:39.580Z,1012.00
2023-03-29T12:07:39.573Z,1012.09